createdAt,value
2019-03-01T14:14:32.449Z,91.06
2019-03-01T14:15:34.982Z,81.60
2019-03-01T14:16:33.336Z,78.30
2019-03-01T14:17:32.326Z,78.30
2019-03-01T14:18:33.358Z,78.00
2019-03-01T14:19:32.312Z,79.44
2019-03-01T14:20:32.300Z,79.68
2019-03-01T14:21:33.094Z,79.68
2019-03-01T14:22:32.291Z,78.65
2019-03-01T14:23:32.294Z,80.13
2019-03-01T14:24:32.249Z,78.65
2019-03-01T14:25:32.246Z,80.23
2019-03-01T14:26:32.232Z,79.20
2019-03-01T14:27:32.217Z,78.83
2019-03-01T14:28:32.240Z,79.17
2019-03-01T14:29:32.195Z,79.75
2019-03-01T14:30:33.472Z,79.75
2019-03-01T14:31:32.183Z,79.79
2019-03-01T14:32:32.164Z,79.69
2019-03-01T14:33:33.168Z,79.69
2019-03-01T14:34:32.143Z,79.07
2019-03-01T14:35:32.180Z,79.07
2019-03-01T14:36:32.136Z,78.14
2019-03-01T14:37:32.213Z,78.55
2019-03-01T14:38:32.226Z,78.24
2019-03-01T14:39:32.132Z,78.34
2019-03-01T14:40:32.113Z,78.80
2019-03-01T14:41:35.075Z,78.38
2019-03-01T14:42:32.054Z,78.76
2019-03-01T14:43:32.357Z,79.21
2019-03-01T14:44:33.916Z,78.86
2019-03-01T14:45:32.746Z,78.97
2019-03-01T14:46:32.697Z,79.21
2019-03-01T14:47:32.792Z,78.86
2019-03-01T14:48:33.649Z,78.45
2019-03-01T14:49:34.829Z,78.86
2019-03-01T14:50:33.689Z,78.45
2019-03-01T14:51:32.114Z,79.27
2019-03-01T14:52:32.072Z,79.07
2019-03-01T14:53:34.734Z,80.04
2019-03-01T14:54:31.917Z,79.83
2019-03-01T14:55:31.907Z,79.90
2019-03-01T14:56:34.698Z,79.41
2019-03-01T14:57:31.884Z,80.04
2019-03-01T14:58:32.031Z,79.21
2019-03-01T14:59:38.031Z,78.80
2019-03-01T15:00:32.853Z,78.18
2019-03-01T15:01:31.840Z,78.42
2019-03-01T15:02:31.828Z,78.42
2019-03-01T15:03:31.846Z,80.28
2019-03-01T15:04:31.883Z,79.14
2019-03-01T15:05:31.793Z,79.76
2019-03-01T15:06:31.786Z,79.62
2019-03-01T15:07:31.773Z,80.04
2019-03-01T15:08:31.768Z,79.35
2019-03-01T15:09:31.795Z,79.14
2019-03-01T15:10:32.026Z,80.28
2019-03-01T15:11:31.732Z,79.76
2019-03-01T15:12:31.718Z,80.07
2019-03-01T15:13:34.848Z,79.86
2019-03-01T15:14:31.726Z,79.83
2019-03-01T15:15:32.424Z,79.86
2019-03-01T15:16:31.680Z,79.76
2019-03-01T15:17:31.693Z,79.76
2019-03-01T15:18:32.396Z,79.45
2019-03-01T15:19:31.683Z,79.52
2019-03-01T15:20:31.637Z,79.83
2019-03-01T15:21:34.005Z,78.83
2019-03-01T15:22:32.606Z,77.91
2019-03-01T15:23:31.595Z,78.52
2019-03-01T15:24:33.267Z,78.31
2019-03-01T15:25:31.585Z,78.52
2019-03-01T15:26:31.561Z,77.70
2019-03-01T15:27:31.555Z,78.63
2019-03-01T15:28:31.542Z,78.73
2019-03-01T15:29:32.029Z,78.83
2019-03-01T15:30:31.517Z,78.83
2019-03-01T15:31:31.512Z,78.42
2019-03-01T15:32:35.160Z,78.63
2019-03-01T15:33:31.501Z,78.31
2019-03-01T15:34:31.471Z,78.52
2019-03-01T15:35:31.507Z,78.94
2019-03-01T15:36:31.454Z,78.73
2019-03-01T15:37:34.990Z,79.66
2019-03-01T15:38:31.442Z,79.35
2019-03-01T15:39:31.423Z,79.28
2019-03-01T15:40:32.622Z,79.25
2019-03-01T15:41:31.411Z,79.28
2019-03-01T15:42:31.484Z,79.35
2019-03-01T15:43:31.388Z,78.31
2019-03-01T15:44:31.355Z,78.42
2019-03-01T15:45:31.353Z,78.73
2019-03-01T15:46:31.366Z,77.94
2019-03-01T15:47:31.338Z,77.63
2019-03-01T15:48:34.412Z,77.63
2019-03-01T15:49:32.302Z,77.22
2019-03-01T15:50:31.304Z,77.11
2019-03-01T15:51:34.502Z,76.50
2019-03-01T15:52:31.275Z,76.50
2019-03-01T15:53:31.258Z,76.64
2019-03-01T15:54:32.463Z,76.73
2019-03-01T15:55:31.236Z,76.81
2019-03-01T15:56:31.245Z,76.94
2019-03-01T15:57:31.211Z,77.04
2019-03-01T15:58:33.229Z,76.81
2019-03-01T15:59:31.194Z,77.04
2019-03-01T16:00:31.178Z,77.11
2019-03-01T16:01:31.195Z,77.04
2019-03-01T16:02:31.170Z,77.53
2019-03-01T16:03:31.143Z,77.04
2019-03-01T16:04:33.690Z,77.36
2019-03-01T16:05:34.306Z,77.15
2019-03-01T16:06:32.139Z,77.46
2019-03-01T16:07:32.304Z,77.77
2019-03-01T16:08:31.083Z,77.46
2019-03-01T16:09:31.073Z,77.87
2019-03-01T16:10:32.974Z,78.08
2019-03-01T16:11:31.129Z,77.84
2019-03-01T16:12:32.232Z,77.01
2019-03-01T16:13:31.062Z,76.39
2019-03-01T16:14:31.023Z,75.95
2019-03-01T16:15:31.022Z,75.46
2019-03-01T16:16:31.041Z,76.08
2019-03-01T16:17:30.986Z,76.39
2019-03-01T16:18:30.986Z,76.18
2019-03-01T16:19:30.988Z,76.50
2019-03-01T16:20:30.954Z,76.60
2019-03-01T16:21:30.946Z,76.25
2019-03-01T16:22:30.956Z,76.18
2019-03-01T16:23:31.112Z,76.15
2019-03-01T16:24:30.906Z,76.25
2019-03-01T16:25:30.905Z,76.35
2019-03-01T16:26:33.545Z,76.50
2019-03-01T16:27:31.911Z,76.70
2019-03-01T16:28:31.462Z,76.50
2019-03-01T16:29:30.859Z,76.60
2019-03-01T16:30:30.838Z,77.11
2019-03-01T16:31:32.085Z,77.32
2019-03-01T16:32:30.851Z,77.63
2019-03-01T16:33:30.813Z,78.05
2019-03-01T16:34:30.797Z,78.14
2019-03-01T16:35:30.789Z,78.05
2019-03-01T16:36:30.778Z,77.94
2019-03-01T16:37:30.793Z,77.84
2019-03-01T16:38:38.154Z,78.05
2019-03-01T16:39:31.748Z,77.42
2019-03-01T16:40:30.733Z,77.42
2019-03-01T16:41:30.726Z,77.01
2019-03-01T16:42:38.146Z,76.81
2019-03-01T16:43:31.721Z,76.73
2019-03-01T16:44:30.691Z,76.81
2019-03-01T16:45:30.670Z,76.53
2019-03-01T16:46:31.502Z,74.98
2019-03-01T16:47:30.653Z,74.26
2019-03-01T16:48:30.663Z,74.43
2019-03-01T16:49:30.640Z,73.54
2019-03-01T16:50:30.621Z,73.29
2019-03-01T16:51:30.624Z,73.64
2019-03-01T16:52:31.210Z,72.47
2019-03-01T16:53:30.603Z,72.67
2019-03-01T16:54:30.567Z,72.47
2019-03-01T16:55:30.561Z,72.36
2019-03-01T16:56:30.547Z,72.16
2019-03-01T16:57:30.579Z,72.47
2019-03-01T16:58:30.623Z,72.47
2019-03-01T16:59:30.513Z,72.50
2019-03-01T17:00:30.499Z,72.57
2019-03-01T17:01:30.809Z,72.40
2019-03-01T17:02:30.492Z,72.78
2019-03-01T17:03:30.490Z,72.88
2019-03-01T17:04:30.486Z,72.57
2019-03-01T17:05:30.453Z,71.95
2019-03-01T17:06:30.431Z,72.16
2019-03-01T17:07:30.436Z,72.26
2019-03-01T17:08:30.533Z,72.06
2019-03-01T17:09:30.392Z,71.54
2019-03-01T17:10:31.210Z,71.54
2019-03-01T17:11:30.863Z,71.12
2019-03-01T17:12:30.564Z,71.85
2019-03-01T17:13:30.387Z,72.09
2019-03-01T17:14:30.368Z,71.98
2019-03-01T17:15:30.336Z,71.75
2019-03-01T17:16:30.319Z,72.57
2019-03-01T17:17:33.099Z,72.06
2019-03-01T17:18:31.322Z,72.06
2019-03-01T17:19:30.325Z,71.92
2019-03-01T17:20:30.418Z,71.71
2019-03-01T17:21:30.271Z,71.61
2019-03-01T17:22:30.249Z,71.41
2019-03-01T17:23:30.242Z,71.44
2019-03-01T17:24:30.257Z,71.54
2019-03-01T17:25:30.229Z,71.12
2019-03-01T17:26:30.825Z,71.75
2019-03-01T17:27:30.302Z,71.95
2019-03-01T17:28:30.189Z,71.95
2019-03-01T17:29:31.599Z,72.16
2019-03-01T17:30:30.166Z,72.16
2019-03-01T17:31:30.164Z,72.36
2019-03-01T17:32:30.138Z,72.13
2019-03-01T17:33:30.147Z,72.26
2019-03-01T17:35:31.258Z,72.26
2019-03-01T17:36:30.096Z,72.16
2019-03-01T17:37:32.342Z,72.26
2019-03-01T17:38:30.075Z,72.16
2019-03-01T17:39:30.093Z,72.06
2019-03-01T17:40:32.460Z,72.36
2019-03-01T17:41:30.045Z,71.75
2019-03-01T17:42:30.084Z,72.16
2019-03-01T17:43:32.757Z,71.88
2019-03-01T17:44:30.026Z,72.61
2019-03-01T17:45:30.033Z,72.47
2019-03-01T17:46:32.984Z,72.61
2019-03-01T17:47:29.969Z,72.30
2019-03-01T17:48:29.959Z,72.71
2019-03-01T17:49:33.070Z,73.09
2019-03-01T17:50:29.968Z,71.95
2019-03-01T17:51:29.925Z,72.67
2019-03-01T17:52:30.584Z,72.47
2019-03-01T17:53:29.902Z,72.78
2019-03-01T17:54:29.903Z,73.71
2019-03-01T17:55:30.095Z,72.67
2019-03-01T17:56:29.886Z,72.06
2019-03-01T17:57:32.999Z,72.02
2019-03-01T17:58:29.902Z,71.95
2019-03-01T17:59:29.924Z,71.85
2019-03-01T18:00:29.897Z,71.75
2019-03-01T18:01:29.824Z,72.06
2019-03-01T18:02:29.851Z,71.44
2019-03-01T18:03:29.797Z,71.54
2019-03-01T18:04:29.777Z,71.47
2019-03-01T18:05:29.967Z,70.82
2019-03-01T18:06:29.757Z,70.51
2019-03-01T18:07:29.744Z,70.85
2019-03-01T18:08:29.738Z,71.23
2019-03-01T18:09:29.728Z,71.33
2019-03-01T18:10:32.137Z,70.30
2019-03-01T18:11:29.800Z,70.61
2019-03-01T18:12:29.703Z,71.44
2019-03-01T18:13:29.685Z,71.33
2019-03-01T18:14:29.676Z,70.51
2019-03-01T18:15:29.772Z,71.23
2019-03-01T18:16:30.678Z,71.41
2019-03-01T18:17:32.899Z,70.40
2019-03-01T18:18:30.638Z,71.33
2019-03-01T18:19:29.616Z,71.23
2019-03-01T18:20:29.609Z,70.92
2019-03-01T18:21:29.645Z,70.72
2019-03-01T18:22:29.985Z,69.96
2019-03-01T18:23:29.567Z,70.40
2019-03-01T18:24:29.562Z,70.51
2019-03-01T18:25:29.546Z,71.44
2019-03-01T18:26:29.557Z,70.09
2019-03-01T18:27:29.546Z,71.54
2019-03-01T18:28:29.527Z,71.44
2019-03-01T18:29:29.497Z,70.51
2019-03-01T18:30:30.103Z,71.75
2019-03-01T18:31:34.493Z,72.06
2019-03-01T18:32:30.480Z,71.54
2019-03-01T18:33:29.471Z,71.23
2019-03-01T18:34:30.084Z,71.75
2019-03-01T18:35:30.441Z,72.30
2019-03-01T18:36:31.523Z,71.64
2019-03-01T18:37:29.450Z,71.64
2019-03-01T18:38:31.315Z,71.12
2019-03-01T18:39:29.391Z,77.42
2019-03-01T18:40:29.372Z,71.23
2019-03-01T18:41:29.406Z,71.12
2019-03-01T18:42:29.388Z,70.30
2019-03-01T18:43:29.353Z,70.43
2019-03-01T18:44:29.343Z,71.37
2019-03-01T18:45:29.328Z,71.54
2019-03-01T18:46:29.306Z,70.40
2019-03-01T18:47:30.743Z,71.12
2019-03-01T18:48:29.297Z,69.78
2019-03-01T18:49:29.277Z,69.89
2019-03-01T18:50:31.206Z,70.30
2019-03-01T18:51:29.267Z,69.99
2019-03-01T18:52:29.281Z,69.27
2019-03-01T18:53:29.706Z,69.48
2019-03-01T18:54:29.219Z,69.37
2019-03-01T18:55:29.208Z,69.48
2019-03-01T18:56:29.708Z,68.85
2019-03-01T18:57:29.228Z,68.99
2019-03-01T18:58:29.178Z,69.37
2019-03-01T18:59:29.163Z,69.37
2019-03-01T19:00:32.381Z,69.61
2019-03-01T19:01:30.149Z,68.96
2019-03-01T19:02:29.159Z,68.88
2019-03-01T19:03:29.142Z,68.96
2019-03-01T19:04:29.918Z,69.17
2019-03-01T19:05:29.091Z,68.96
2019-03-01T19:06:29.383Z,69.17
2019-03-01T19:07:29.078Z,68.58
2019-03-01T19:08:29.105Z,69.17
2019-03-01T19:09:29.060Z,68.85
2019-03-01T19:10:29.043Z,68.96
2019-03-01T19:11:29.035Z,69.20
2019-03-01T19:12:29.034Z,68.99
2019-03-01T19:13:29.053Z,68.88
2019-03-01T19:14:29.007Z,69.30
2019-03-01T19:15:28.982Z,68.99
2019-03-01T19:16:29.436Z,68.78
2019-03-01T19:17:28.963Z,69.20
2019-03-01T19:18:28.984Z,70.23
2019-03-01T19:19:30.621Z,69.92
2019-03-01T19:20:28.927Z,69.61
2019-03-01T19:21:28.918Z,69.82
2019-03-01T19:22:29.372Z,69.89
2019-03-01T19:23:29.304Z,69.89
2019-03-01T19:24:28.898Z,70.09
2019-03-01T19:25:28.887Z,69.58
2019-03-01T19:26:28.862Z,70.03
2019-03-01T19:27:28.846Z,69.17
2019-03-01T19:28:28.842Z,69.30
2019-03-01T19:29:28.865Z,69.51
2019-03-01T19:30:28.827Z,69.71
2019-03-01T19:31:28.809Z,69.17
2019-03-01T19:32:28.794Z,69.06
2019-03-01T19:33:28.785Z,69.48
2019-03-01T19:34:28.797Z,70.09
2019-03-01T19:35:29.936Z,69.78
2019-03-01T19:36:28.759Z,69.37
2019-03-01T19:37:28.730Z,69.99
2019-03-01T19:38:28.735Z,69.78
2019-03-01T19:39:28.744Z,69.27
2019-03-01T19:40:28.714Z,69.68
2019-03-01T19:41:28.688Z,70.30
2019-03-01T19:42:29.521Z,69.48
2019-03-01T19:43:28.667Z,69.37
2019-03-01T19:44:29.736Z,69.27
2019-03-01T19:45:28.645Z,69.68
2019-03-01T19:46:28.634Z,69.89
2019-03-01T19:47:28.634Z,69.99
2019-03-01T19:48:28.610Z,70.06
2019-03-01T19:49:28.621Z,69.89
2019-03-01T19:50:28.608Z,69.54
2019-03-01T19:51:28.576Z,69.37
2019-03-01T19:52:28.565Z,70.30
2019-03-01T19:53:28.564Z,70.30
2019-03-01T19:54:28.566Z,70.54
2019-03-01T19:55:28.536Z,70.43
2019-03-01T19:56:28.544Z,69.71
2019-03-01T19:57:28.517Z,70.30
2019-03-01T19:58:28.516Z,70.51
2019-03-01T19:59:28.530Z,70.51
2019-03-01T20:00:28.482Z,70.82
2019-03-01T20:01:28.487Z,71.44
2019-03-01T20:02:30.962Z,71.64
2019-03-01T20:03:28.482Z,71.54
2019-03-01T20:04:28.429Z,71.47
2019-03-01T20:05:31.884Z,71.23
2019-03-01T20:06:28.455Z,71.02
2019-03-01T20:07:28.404Z,71.78
2019-03-01T20:08:29.592Z,72.50
2019-03-01T20:09:28.392Z,72.09
2019-03-01T20:10:28.404Z,72.19
2019-03-01T20:11:28.359Z,72.09
2019-03-01T20:12:28.348Z,72.50
2019-03-01T20:13:28.333Z,72.19
2019-03-01T20:14:30.384Z,72.50
2019-03-01T20:15:29.442Z,72.19
2019-03-01T20:16:28.301Z,72.50
2019-03-01T20:17:30.274Z,72.71
2019-03-01T20:18:29.271Z,72.88
2019-03-01T20:19:28.272Z,73.22
2019-03-01T20:20:29.791Z,72.71
2019-03-01T20:21:28.240Z,72.61
2019-03-01T20:22:28.228Z,72.50
2019-03-01T20:23:29.570Z,72.50
2019-03-01T20:24:28.218Z,71.98
2019-03-01T20:25:28.198Z,72.36
2019-03-01T20:26:28.225Z,72.26
2019-03-01T20:27:28.176Z,72.16
2019-03-01T20:28:28.163Z,71.88
2019-03-01T20:29:28.158Z,71.44
2019-03-01T20:30:30.227Z,71.37
2019-03-01T20:31:28.163Z,71.57
2019-03-01T20:32:28.135Z,71.33
2019-03-01T20:33:28.114Z,71.57
2019-03-01T20:34:28.122Z,71.57
2019-03-01T20:35:28.099Z,71.26
2019-03-01T20:36:28.104Z,71.33
2019-03-01T20:37:28.657Z,71.06
2019-03-01T20:38:28.048Z,70.43
2019-03-01T20:39:28.044Z,71.16
2019-03-01T20:40:28.340Z,71.57
2019-03-01T20:41:28.060Z,71.26
2019-03-01T20:42:28.006Z,71.47
2019-03-01T20:43:27.993Z,71.88
2019-03-01T20:44:27.993Z,71.78
2019-03-01T20:45:29.842Z,71.33
2019-03-01T20:46:28.010Z,71.23
2019-03-01T20:47:27.950Z,71.26
2019-03-01T20:48:29.003Z,71.88
2019-03-01T20:49:27.935Z,71.37
2019-03-01T20:50:27.940Z,71.16
2019-03-01T20:51:28.045Z,71.64
2019-03-01T20:52:27.919Z,71.57
2019-03-01T20:53:27.893Z,71.64
2019-03-01T20:54:27.889Z,71.78
2019-03-01T20:55:27.858Z,72.71
2019-03-01T20:56:27.890Z,71.88
2019-03-01T20:57:28.328Z,71.47
2019-03-01T20:58:27.837Z,71.78
2019-03-01T20:59:27.817Z,72.26
2019-03-01T21:00:29.814Z,70.61
2019-03-01T21:01:27.848Z,70.09
2019-03-01T21:02:27.814Z,70.82
2019-03-01T21:03:29.967Z,70.43
2019-03-01T21:04:27.759Z,70.03
2019-03-01T21:05:29.289Z,70.33
2019-03-01T21:06:27.750Z,70.51
2019-03-01T21:07:27.724Z,70.23
2019-03-01T21:08:29.056Z,70.09
2019-03-01T21:09:27.708Z,69.92
2019-03-01T21:10:27.695Z,70.43
2019-03-01T21:11:27.704Z,70.54
2019-03-01T21:12:27.714Z,70.54
2019-03-01T21:13:27.653Z,70.95
2019-03-01T21:14:27.880Z,70.95
2019-03-01T21:15:27.648Z,71.06
2019-03-01T21:16:27.629Z,71.47
2019-03-01T21:17:27.646Z,70.54
2019-03-01T21:18:30.846Z,70.03
2019-03-01T21:19:28.585Z,70.43
2019-03-01T21:20:27.589Z,70.33
2019-03-01T21:21:28.878Z,70.57
2019-03-01T21:22:27.590Z,71.61
2019-03-01T21:23:27.563Z,71.67
2019-03-01T21:24:27.759Z,71.61
2019-03-01T21:25:27.534Z,71.61
2019-03-01T21:26:27.520Z,71.81
2019-03-01T21:27:27.556Z,71.61
2019-03-01T21:28:27.487Z,72.12
2019-03-01T21:29:27.478Z,72.53
2019-03-01T21:30:27.469Z,72.22
2019-03-01T21:31:27.453Z,72.33
2019-03-01T21:32:27.441Z,72.22
2019-03-01T21:33:28.280Z,72.43
2019-03-01T21:34:27.419Z,72.22
2019-03-01T21:35:27.412Z,72.64
2019-03-01T21:36:27.399Z,73.67
2019-03-01T21:37:27.396Z,73.60
2019-03-01T21:38:27.403Z,73.16
2019-03-01T21:39:27.362Z,73.05
2019-03-01T21:40:27.353Z,73.50
2019-03-01T21:41:27.344Z,73.81
2019-03-01T21:42:27.331Z,73.71
2019-03-01T21:43:30.662Z,74.12
2019-03-01T21:44:28.320Z,74.63
2019-03-01T21:45:27.309Z,74.60
2019-03-01T21:46:30.482Z,74.33
2019-03-01T21:47:28.294Z,74.22
2019-03-01T21:48:27.284Z,74.53
2019-03-01T21:49:27.278Z,74.84
2019-03-01T21:50:27.245Z,75.05
2019-03-01T21:51:27.241Z,74.91
2019-03-01T21:52:29.555Z,74.60
2019-03-01T21:53:27.210Z,75.01
2019-03-01T21:54:27.235Z,74.50
2019-03-01T21:55:28.510Z,75.01
2019-03-01T21:56:27.170Z,74.63
2019-03-01T21:57:27.611Z,75.78
2019-03-01T21:58:27.266Z,75.57
2019-03-01T21:59:27.135Z,75.88
2019-03-01T22:00:29.734Z,76.09
2019-03-01T22:01:27.119Z,75.88
2019-03-01T22:02:27.106Z,75.26
2019-03-01T22:03:28.197Z,76.18
2019-03-01T22:04:28.778Z,75.88
2019-03-01T22:05:27.083Z,75.98
2019-03-01T22:06:27.074Z,76.18
2019-03-01T22:07:27.049Z,76.50
2019-03-01T22:08:27.040Z,76.91
2019-03-01T22:09:27.051Z,76.60
2019-03-01T22:10:27.017Z,77.01
2019-03-01T22:11:27.008Z,76.39
2019-03-01T22:12:26.993Z,76.70
2019-03-01T22:13:26.990Z,76.46
2019-03-01T22:14:27.008Z,76.29
2019-03-01T22:15:27.191Z,76.70
2019-03-01T22:16:26.953Z,76.09
2019-03-01T22:17:26.951Z,76.29
2019-03-01T22:18:26.923Z,76.70
2019-03-01T22:19:26.965Z,76.60
2019-03-01T22:20:26.901Z,76.67
2019-03-01T22:21:26.906Z,76.39
2019-03-01T22:22:26.883Z,76.60
2019-03-01T22:23:26.876Z,76.56
2019-03-01T22:24:27.393Z,76.56
2019-03-01T22:25:26.888Z,76.36
2019-03-01T22:26:26.844Z,76.46
2019-03-01T22:27:26.823Z,76.56
2019-03-01T22:28:26.818Z,76.56
2019-03-01T22:29:26.812Z,76.56
2019-03-01T22:30:26.824Z,76.56
2019-03-01T22:31:26.781Z,76.98
2019-03-01T22:32:26.771Z,76.67
2019-03-01T22:33:26.754Z,77.12
2019-03-01T22:34:27.456Z,77.53
2019-03-01T22:35:26.767Z,77.08
2019-03-01T22:36:26.725Z,77.60
2019-03-01T22:37:28.444Z,77.91
2019-03-01T22:38:26.703Z,77.91
2019-03-01T22:39:26.696Z,77.60
2019-03-01T22:40:28.027Z,77.91
2019-03-01T22:41:26.670Z,77.84
2019-03-01T22:42:26.658Z,77.70
2019-03-01T22:43:27.380Z,77.91
2019-03-01T22:44:26.647Z,77.94
2019-03-01T22:45:26.654Z,78.98
2019-03-01T22:46:26.650Z,78.77
2019-03-01T22:47:26.600Z,78.56
2019-03-01T22:48:26.603Z,78.56
2019-03-01T22:49:28.646Z,78.46
2019-03-01T22:50:26.600Z,78.67
2019-03-01T22:51:26.590Z,78.46
2019-03-01T22:52:30.122Z,79.29
2019-03-01T22:53:26.554Z,79.70
2019-03-01T22:54:26.539Z,79.29
2019-03-01T22:55:26.520Z,79.80
2019-03-01T22:56:26.533Z,79.70
2019-03-01T22:57:26.750Z,79.39
2019-03-01T22:58:26.482Z,79.91
2019-03-01T22:59:26.470Z,79.80
2019-03-01T23:00:26.465Z,79.36
2019-03-01T23:01:29.519Z,80.01
2019-03-01T23:02:27.442Z,79.91
2019-03-01T23:03:26.423Z,80.32
2019-03-01T23:04:26.649Z,79.49
2019-03-01T23:05:26.401Z,80.32
2019-03-01T23:06:26.419Z,80.53
2019-03-01T23:07:27.287Z,80.63
2019-03-01T23:08:26.372Z,80.53
2019-03-01T23:09:26.364Z,80.94
2019-03-01T23:10:26.346Z,81.15
2019-03-01T23:11:28.748Z,80.84
2019-03-01T23:12:27.322Z,81.05
2019-03-01T23:13:26.314Z,80.74
2019-03-01T23:14:27.264Z,80.63
2019-03-01T23:15:26.309Z,80.53
2019-03-01T23:16:26.329Z,80.53
2019-03-01T23:17:27.565Z,80.60
2019-03-01T23:18:26.255Z,80.53
2019-03-01T23:19:26.250Z,80.74
2019-03-01T23:20:27.290Z,80.53
2019-03-01T23:21:26.225Z,80.63
2019-03-01T23:22:26.246Z,80.43
2019-03-01T23:23:26.205Z,80.01
2019-03-01T23:24:26.192Z,79.91
2019-03-01T23:25:26.183Z,79.77
2019-03-01T23:26:26.167Z,80.32
2019-03-01T23:27:28.508Z,80.49
2019-03-01T23:28:27.148Z,80.43
2019-03-01T23:29:26.142Z,81.05
2019-03-01T23:30:29.063Z,80.84
2019-03-01T23:31:26.119Z,81.05
2019-03-01T23:32:26.132Z,80.94
2019-03-01T23:33:27.709Z,80.94
2019-03-01T23:34:27.084Z,80.94
2019-03-01T23:35:26.068Z,80.90
2019-03-01T23:36:28.503Z,80.53
2019-03-01T23:37:26.075Z,80.53
2019-03-01T23:38:26.035Z,80.94
2019-03-01T23:39:26.023Z,81.35
2019-03-01T23:40:26.016Z,81.56
2019-03-01T23:41:26.012Z,81.87
2019-03-01T23:42:26.029Z,81.46
2019-03-01T23:43:27.625Z,81.35
2019-03-01T23:44:25.975Z,81.87
2019-03-01T23:45:25.968Z,81.56
2019-03-01T23:46:28.626Z,81.67
2019-03-01T23:47:25.959Z,81.98
2019-03-01T23:48:25.926Z,81.98
2019-03-01T23:49:25.914Z,81.87
2019-03-01T23:50:25.901Z,81.87
2019-03-01T23:51:25.898Z,81.87
2019-03-01T23:52:25.911Z,81.81
2019-03-01T23:53:27.402Z,81.77
2019-03-01T23:54:25.857Z,81.42
2019-03-01T23:55:25.869Z,81.52
2019-03-01T23:56:26.804Z,80.43
2019-03-01T23:57:25.825Z,80.22
2019-03-01T23:58:25.843Z,80.18
2019-03-01T23:59:26.616Z,79.97
